sensor_id;sensor_type;location;lat;lon;timestamp;P1;durP1;ratioP1;P2;durP2;ratioP2
4525;SDS011;2275;52.208;8.804;2022-08-19T12:42:11;4.30;;;3.30;;
4525;SDS011;2275;52.208;8.804;2022-08-19T12:44:39;4.00;;;3.20;;
4525;SDS011;2275;52.208;8.804;2022-08-19T12:47:06;5.30;;;3.63;;
4525;SDS011;2275;52.208;8.804;2022-08-19T12:49:33;4.63;;;4.03;;
4525;SDS011;2275;52.208;8.804;2022-08-19T12:52:00;3.57;;;3.27;;
4525;SDS011;2275;52.208;8.804;2022-08-19T12:54:27;3.50;;;3.20;;
4525;SDS011;2275;52.208;8.804;2022-08-19T12:56:55;7.40;;;4.00;;
4525;SDS011;2275;52.208;8.804;2022-08-19T12:59:22;3.90;;;3.60;;
4525;SDS011;2275;52.208;8.804;2022-08-19T13:01:50;4.57;;;4.17;;
4525;SDS011;2275;52.208;8.804;2022-08-19T13:04:17;4.50;;;2.90;;
4525;SDS011;2275;52.208;8.804;2022-08-19T13:06:44;5.50;;;3.97;;
4525;SDS011;2275;52.208;8.804;2022-08-19T13:09:13;4.67;;;4.23;;
4525;SDS011;2275;52.208;8.804;2022-08-19T13:11:40;4.40;;;3.83;;
4525;SDS011;2275;52.208;8.804;2022-08-19T13:14:08;4.10;;;3.70;;
4525;SDS011;2275;52.208;8.804;2022-08-19T13:16:37;4.03;;;3.40;;
4525;SDS011;2275;52.208;8.804;2022-08-19T13:19:07;7.63;;;6.53;;
4525;SDS011;2275;52.208;8.804;2022-08-19T13:21:34;6.50;;;4.90;;
4525;SDS011;2275;52.208;8.804;2022-08-19T13:24:03;5.13;;;3.77;;
4525;SDS011;2275;52.208;8.804;2022-08-19T13:26:29;5.33;;;4.60;;
4525;SDS011;2275;52.208;8.804;2022-08-19T13:28:56;7.10;;;3.90;;
4525;SDS011;2275;52.208;8.804;2022-08-19T13:31:30;4.27;;;3.87;;
4525;SDS011;2275;52.208;8.804;2022-08-19T13:34:02;5.03;;;3.73;;
4525;SDS011;2275;52.208;8.804;2022-08-19T13:36:30;6.77;;;3.37;;
4525;SDS011;2275;52.208;8.804;2022-08-19T13:39:02;3.93;;;3.63;;
4525;SDS011;2275;52.208;8.804;2022-08-19T13:41:29;4.23;;;3.83;;
4525;SDS011;2275;52.208;8.804;2022-08-19T13:43:56;5.73;;;4.03;;
4525;SDS011;2275;52.208;8.804;2022-08-19T13:46:24;4.67;;;4.23;;
4525;SDS011;2275;52.208;8.804;2022-08-19T13:48:50;3.70;;;3.07;;
4525;SDS011;2275;52.208;8.804;2022-08-19T13:51:17;5.83;;;3.87;;
4525;SDS011;2275;52.208;8.804;2022-08-19T13:53:45;3.63;;;3.07;;
4525;SDS011;2275;52.208;8.804;2022-08-19T13:56:13;5.13;;;3.53;;
4525;SDS011;2275;52.208;8.804;2022-08-19T13:58:39;4.00;;;3.60;;
4525;SDS011;2275;52.208;8.804;2022-08-19T14:04:06;6.83;;;3.63;;
4525;SDS011;2275;52.208;8.804;2022-08-19T14:06:34;4.83;;;3.90;;
4525;SDS011;2275;52.208;8.804;2022-08-19T14:09:02;5.27;;;3.87;;
4525;SDS011;2275;52.208;8.804;2022-08-19T14:11:29;7.70;;;4.00;;
4525;SDS011;2275;52.208;8.804;2022-08-19T14:13:57;4.27;;;3.87;;
4525;SDS011;2275;52.208;8.804;2022-08-19T14:16:24;5.60;;;3.43;;
4525;SDS011;2275;52.208;8.804;2022-08-19T14:18:51;3.90;;;3.07;;
4525;SDS011;2275;52.208;8.804;2022-08-19T14:21:21;6.20;;;3.60;;
4525;SDS011;2275;52.208;8.804;2022-08-19T14:23:46;5.80;;;3.77;;
4525;SDS011;2275;52.208;8.804;2022-08-19T14:26:14;5.10;;;3.33;;
4525;SDS011;2275;52.208;8.804;2022-08-19T14:28:41;3.80;;;3.40;;
4525;SDS011;2275;52.208;8.804;2022-08-19T14:31:08;8.23;;;4.17;;
4525;SDS011;2275;52.208;8.804;2022-08-19T14:33:35;7.23;;;3.70;;
4525;SDS011;2275;52.208;8.804;2022-08-19T14:36:03;4.37;;;3.70;;
4525;SDS011;2275;52.208;8.804;2022-08-19T14:38:30;6.00;;;4.40;;
4525;SDS011;2275;52.208;8.804;2022-08-19T14:43:31;6.63;;;5.27;;
4525;SDS011;2275;52.208;8.804;2022-08-19T14:45:59;6.40;;;4.30;;
4525;SDS011;2275;52.208;8.804;2022-08-19T14:48:26;4.70;;;4.03;;
4525;SDS011;2275;52.208;8.804;2022-08-19T14:50:53;5.43;;;4.93;;
4525;SDS011;2275;52.208;8.804;2022-08-19T14:53:20;11.40;;;4.23;;
4525;SDS011;2275;52.208;8.804;2022-08-19T14:55:47;5.13;;;3.77;;
4525;SDS011;2275;52.208;8.804;2022-08-19T14:58:14;5.73;;;4.30;;
4525;SDS011;2275;52.208;8.804;2022-08-19T15:00:41;4.97;;;4.33;;
4525;SDS011;2275;52.208;8.804;2022-08-19T15:03:09;5.23;;;4.20;;
4525;SDS011;2275;52.208;8.804;2022-08-19T15:05:36;5.40;;;3.70;;
4525;SDS011;2275;52.208;8.804;2022-08-19T15:08:04;5.20;;;3.83;;
4525;SDS011;2275;52.208;8.804;2022-08-19T15:10:31;4.57;;;4.10;;
4525;SDS011;2275;52.208;8.804;2022-08-19T15:12:58;5.67;;;4.20;;
4525;SDS011;2275;52.208;8.804;2022-08-19T15:15:25;6.90;;;4.37;;
4525;SDS011;2275;52.208;8.804;2022-08-19T15:17:53;8.47;;;4.03;;
4525;SDS011;2275;52.208;8.804;2022-08-19T15:20:28;4.77;;;4.10;;
4525;SDS011;2275;52.208;8.804;2022-08-19T15:23:01;12.00;;;8.00;;
4525;SDS011;2275;52.208;8.804;2022-08-19T15:25:28;8.20;;;4.80;;
4525;SDS011;2275;52.208;8.804;2022-08-19T15:27:55;5.07;;;4.57;;
4525;SDS011;2275;52.208;8.804;2022-08-19T15:30:24;6.30;;;5.40;;
4525;SDS011;2275;52.208;8.804;2022-08-19T15:32:51;5.03;;;3.80;;
4525;SDS011;2275;52.208;8.804;2022-08-19T15:35:18;7.20;;;3.80;;
4525;SDS011;2275;52.208;8.804;2022-08-19T15:37:48;6.10;;;4.80;;
4525;SDS011;2275;52.208;8.804;2022-08-19T15:40:15;4.57;;;4.17;;
4525;SDS011;2275;52.208;8.804;2022-08-19T15:42:42;5.40;;;4.70;;
4525;SDS011;2275;52.208;8.804;2022-08-19T15:45:10;4.30;;;3.83;;
4525;SDS011;2275;52.208;8.804;2022-08-19T15:47:37;4.33;;;3.80;;
4525;SDS011;2275;52.208;8.804;2022-08-19T15:50:09;4.77;;;3.83;;
4525;SDS011;2275;52.208;8.804;2022-08-19T15:52:36;4.50;;;4.03;;
4525;SDS011;2275;52.208;8.804;2022-08-19T15:55:04;9.60;;;6.80;;
4525;SDS011;2275;52.208;8.804;2022-08-19T15:57:31;9.17;;;7.80;;
4525;SDS011;2275;52.208;8.804;2022-08-19T16:00:15;4.97;;;4.47;;
4525;SDS011;2275;52.208;8.804;2022-08-19T16:02:48;5.40;;;4.60;;
4525;SDS011;2275;52.208;8.804;2022-08-19T16:05:23;4.70;;;3.93;;
4525;SDS011;2275;52.208;8.804;2022-08-19T16:07:54;5.73;;;4.80;;
4525;SDS011;2275;52.208;8.804;2022-08-19T16:10:21;4.87;;;3.57;;
4525;SDS011;2275;52.208;8.804;2022-08-19T16:12:48;5.47;;;4.27;;
4525;SDS011;2275;52.208;8.804;2022-08-19T16:15:15;6.03;;;4.37;;
4525;SDS011;2275;52.208;8.804;2022-08-19T16:17:45;6.13;;;4.07;;
4525;SDS011;2275;52.208;8.804;2022-08-19T16:20:13;7.23;;;4.57;;
4525;SDS011;2275;52.208;8.804;2022-08-19T16:22:41;6.50;;;5.20;;
4525;SDS011;2275;52.208;8.804;2022-08-19T16:25:08;5.80;;;4.10;;
4525;SDS011;2275;52.208;8.804;2022-08-19T16:27:35;6.17;;;4.20;;
4525;SDS011;2275;52.208;8.804;2022-08-19T16:30:02;5.57;;;4.30;;
4525;SDS011;2275;52.208;8.804;2022-08-19T16:32:30;6.97;;;4.50;;
4525;SDS011;2275;52.208;8.804;2022-08-19T16:34:57;6.43;;;4.30;;
4525;SDS011;2275;52.208;8.804;2022-08-19T16:40:23;7.20;;;4.20;;
4525;SDS011;2275;52.208;8.804;2022-08-19T16:42:51;5.30;;;4.80;;
4525;SDS011;2275;52.208;8.804;2022-08-19T16:45:18;6.67;;;4.57;;
4525;SDS011;2275;52.208;8.804;2022-08-19T16:47:45;5.60;;;3.77;;
4525;SDS011;2275;52.208;8.804;2022-08-19T16:50:12;5.33;;;3.70;;
4525;SDS011;2275;52.208;8.804;2022-08-19T16:52:39;4.87;;;4.37;;
4525;SDS011;2275;52.208;8.804;2022-08-19T16:55:06;5.67;;;4.60;;
4525;SDS011;2275;52.208;8.804;2022-08-19T16:57:33;4.73;;;4.03;;
4525;SDS011;2275;52.208;8.804;2022-08-19T17:00:03;7.00;;;5.87;;
4525;SDS011;2275;52.208;8.804;2022-08-19T17:02:30;6.43;;;5.80;;
4525;SDS011;2275;52.208;8.804;2022-08-19T17:04:57;7.23;;;6.53;;
4525;SDS011;2275;52.208;8.804;2022-08-19T17:07:26;5.03;;;4.00;;
4525;SDS011;2275;52.208;8.804;2022-08-19T17:09:52;4.50;;;3.80;;
4525;SDS011;2275;52.208;8.804;2022-08-19T17:12:20;5.80;;;4.47;;
4525;SDS011;2275;52.208;8.804;2022-08-19T17:14:48;5.00;;;4.20;;
4525;SDS011;2275;52.208;8.804;2022-08-19T17:17:15;4.63;;;4.00;;
4525;SDS011;2275;52.208;8.804;2022-08-19T17:19:43;4.30;;;3.90;;
4525;SDS011;2275;52.208;8.804;2022-08-19T17:22:10;8.40;;;4.73;;
4525;SDS011;2275;52.208;8.804;2022-08-19T17:24:37;5.17;;;4.00;;
4525;SDS011;2275;52.208;8.804;2022-08-19T17:27:04;6.33;;;4.40;;
4525;SDS011;2275;52.208;8.804;2022-08-19T17:29:31;5.40;;;3.80;;
4525;SDS011;2275;52.208;8.804;2022-08-19T17:31:58;5.13;;;4.67;;
4525;SDS011;2275;52.208;8.804;2022-08-19T17:34:27;5.53;;;4.43;;
4525;SDS011;2275;52.208;8.804;2022-08-19T17:36:55;7.33;;;5.97;;
4525;SDS011;2275;52.208;8.804;2022-08-19T17:42:16;5.30;;;4.00;;
4525;SDS011;2275;52.208;8.804;2022-08-19T17:44:43;9.30;;;4.60;;
4525;SDS011;2275;52.208;8.804;2022-08-19T17:47:10;5.13;;;4.50;;
4525;SDS011;2275;52.208;8.804;2022-08-19T17:49:37;6.37;;;4.87;;
4525;SDS011;2275;52.208;8.804;2022-08-19T17:52:04;6.30;;;4.47;;
4525;SDS011;2275;52.208;8.804;2022-08-19T17:54:32;5.67;;;4.40;;
4525;SDS011;2275;52.208;8.804;2022-08-19T17:56:59;4.90;;;4.20;;
4525;SDS011;2275;52.208;8.804;2022-08-19T17:59:26;5.83;;;3.77;;
4525;SDS011;2275;52.208;8.804;2022-08-19T18:01:53;5.30;;;3.73;;
4525;SDS011;2275;52.208;8.804;2022-08-19T18:04:21;7.40;;;3.87;;
4525;SDS011;2275;52.208;8.804;2022-08-19T18:06:47;4.57;;;3.90;;
4525;SDS011;2275;52.208;8.804;2022-08-19T18:09:14;5.50;;;4.60;;
4525;SDS011;2275;52.208;8.804;2022-08-19T18:11:41;5.10;;;4.47;;
4525;SDS011;2275;52.208;8.804;2022-08-19T18:14:10;5.00;;;4.43;;
4525;SDS011;2275;52.208;8.804;2022-08-19T18:17:08;7.27;;;5.33;;
4525;SDS011;2275;52.208;8.804;2022-08-19T18:19:35;7.20;;;5.63;;
4525;SDS011;2275;52.208;8.804;2022-08-19T18:22:05;8.60;;;4.20;;
4525;SDS011;2275;52.208;8.804;2022-08-19T18:24:32;9.03;;;5.30;;
4525;SDS011;2275;52.208;8.804;2022-08-19T18:26:59;4.77;;;3.83;;
4525;SDS011;2275;52.208;8.804;2022-08-19T18:29:26;7.30;;;4.97;;
4525;SDS011;2275;52.208;8.804;2022-08-19T18:34:37;13.07;;;5.80;;
4525;SDS011;2275;52.208;8.804;2022-08-19T18:37:04;7.27;;;5.57;;
4525;SDS011;2275;52.208;8.804;2022-08-19T18:39:31;5.63;;;4.60;;
4525;SDS011;2275;52.208;8.804;2022-08-19T18:42:03;11.73;;;5.80;;
4525;SDS011;2275;52.208;8.804;2022-08-19T18:44:36;7.80;;;5.50;;
4525;SDS011;2275;52.208;8.804;2022-08-19T18:47:09;8.07;;;5.70;;
4525;SDS011;2275;52.208;8.804;2022-08-19T18:49:41;6.30;;;5.70;;
4525;SDS011;2275;52.208;8.804;2022-08-19T18:52:09;11.23;;;6.40;;
4525;SDS011;2275;52.208;8.804;2022-08-19T18:54:36;7.10;;;6.40;;
4525;SDS011;2275;52.208;8.804;2022-08-19T18:57:03;12.27;;;6.50;;
4525;SDS011;2275;52.208;8.804;2022-08-19T18:59:30;9.30;;;5.37;;
4525;SDS011;2275;52.208;8.804;2022-08-19T19:01:57;8.20;;;6.90;;
4525;SDS011;2275;52.208;8.804;2022-08-19T19:04:28;8.80;;;6.80;;
4525;SDS011;2275;52.208;8.804;2022-08-19T19:06:54;18.63;;;7.63;;
4525;SDS011;2275;52.208;8.804;2022-08-19T19:09:22;13.20;;;7.10;;
4525;SDS011;2275;52.208;8.804;2022-08-19T19:11:50;6.67;;;5.77;;
4525;SDS011;2275;52.208;8.804;2022-08-19T19:14:17;10.47;;;7.20;;
4525;SDS011;2275;52.208;8.804;2022-08-19T19:16:42;10.30;;;8.40;;
4525;SDS011;2275;52.208;8.804;2022-08-19T19:19:11;12.40;;;8.43;;
4525;SDS011;2275;52.208;8.804;2022-08-19T19:21:37;10.20;;;6.43;;
4525;SDS011;2275;52.208;8.804;2022-08-19T19:24:04;8.23;;;6.80;;
4525;SDS011;2275;52.208;8.804;2022-08-19T19:26:32;11.70;;;6.50;;
4525;SDS011;2275;52.208;8.804;2022-08-19T19:28:59;9.50;;;5.57;;
4525;SDS011;2275;52.208;8.804;2022-08-19T19:31:25;8.73;;;6.50;;
4525;SDS011;2275;52.208;8.804;2022-08-19T19:33:54;9.60;;;6.40;;
4525;SDS011;2275;52.208;8.804;2022-08-19T19:36:20;8.83;;;5.93;;
4525;SDS011;2275;52.208;8.804;2022-08-19T19:38:49;9.73;;;6.13;;
4525;SDS011;2275;52.208;8.804;2022-08-19T19:41:18;8.40;;;7.40;;
4525;SDS011;2275;52.208;8.804;2022-08-19T19:43:43;10.93;;;6.73;;
4525;SDS011;2275;52.208;8.804;2022-08-19T19:46:11;11.33;;;6.50;;
4525;SDS011;2275;52.208;8.804;2022-08-19T19:48:38;8.60;;;6.13;;
4525;SDS011;2275;52.208;8.804;2022-08-19T19:51:05;12.20;;;6.90;;
4525;SDS011;2275;52.208;8.804;2022-08-19T19:53:32;8.07;;;6.93;;
4525;SDS011;2275;52.208;8.804;2022-08-19T19:55:59;10.17;;;6.13;;
4525;SDS011;2275;52.208;8.804;2022-08-19T19:58:26;7.10;;;6.00;;
4525;SDS011;2275;52.208;8.804;2022-08-19T20:00:53;11.80;;;6.43;;
4525;SDS011;2275;52.208;8.804;2022-08-19T20:03:20;11.17;;;6.40;;
4525;SDS011;2275;52.208;8.804;2022-08-19T20:05:47;9.23;;;7.10;;
4525;SDS011;2275;52.208;8.804;2022-08-19T20:08:14;9.27;;;7.00;;
4525;SDS011;2275;52.208;8.804;2022-08-19T20:10:48;9.10;;;7.13;;
4525;SDS011;2275;52.208;8.804;2022-08-19T20:13:15;9.13;;;6.70;;
4525;SDS011;2275;52.208;8.804;2022-08-19T20:15:42;8.43;;;6.80;;
4525;SDS011;2275;52.208;8.804;2022-08-19T20:18:10;9.57;;;7.63;;
4525;SDS011;2275;52.208;8.804;2022-08-19T20:20:36;13.00;;;7.30;;
4525;SDS011;2275;52.208;8.804;2022-08-19T20:23:04;11.70;;;7.67;;
4525;SDS011;2275;52.208;8.804;2022-08-19T20:25:31;9.63;;;7.10;;
4525;SDS011;2275;52.208;8.804;2022-08-19T20:28:00;8.87;;;6.57;;
4525;SDS011;2275;52.208;8.804;2022-08-19T20:30:27;7.97;;;6.57;;
4525;SDS011;2275;52.208;8.804;2022-08-19T20:32:56;10.87;;;7.23;;
4525;SDS011;2275;52.208;8.804;2022-08-19T20:35:24;10.87;;;6.87;;
4525;SDS011;2275;52.208;8.804;2022-08-19T20:37:52;9.10;;;7.30;;
4525;SDS011;2275;52.208;8.804;2022-08-19T20:40:23;13.63;;;7.47;;
4525;SDS011;2275;52.208;8.804;2022-08-19T20:42:50;10.93;;;6.90;;
4525;SDS011;2275;52.208;8.804;2022-08-19T20:45:18;10.40;;;6.33;;
4525;SDS011;2275;52.208;8.804;2022-08-19T20:47:45;9.17;;;6.87;;
4525;SDS011;2275;52.208;8.804;2022-08-19T20:50:14;9.07;;;6.83;;
4525;SDS011;2275;52.208;8.804;2022-08-19T20:52:41;10.87;;;7.40;;
4525;SDS011;2275;52.208;8.804;2022-08-19T20:55:09;10.70;;;6.87;;
4525;SDS011;2275;52.208;8.804;2022-08-19T20:57:36;8.90;;;7.27;;
4525;SDS011;2275;52.208;8.804;2022-08-19T21:00:04;8.60;;;6.70;;
4525;SDS011;2275;52.208;8.804;2022-08-19T21:02:32;9.50;;;6.90;;
4525;SDS011;2275;52.208;8.804;2022-08-19T21:04:59;9.17;;;6.50;;
4525;SDS011;2275;52.208;8.804;2022-08-19T21:07:26;10.20;;;7.13;;
4525;SDS011;2275;52.208;8.804;2022-08-19T21:09:53;9.53;;;6.97;;
4525;SDS011;2275;52.208;8.804;2022-08-19T21:12:20;7.90;;;7.10;;
4525;SDS011;2275;52.208;8.804;2022-08-19T21:14:47;10.43;;;7.10;;
4525;SDS011;2275;52.208;8.804;2022-08-19T21:17:15;7.83;;;6.50;;
4525;SDS011;2275;52.208;8.804;2022-08-19T21:19:42;9.50;;;6.90;;
4525;SDS011;2275;52.208;8.804;2022-08-19T21:22:09;14.27;;;7.53;;
4525;SDS011;2275;52.208;8.804;2022-08-19T21:24:37;6.93;;;6.23;;
4525;SDS011;2275;52.208;8.804;2022-08-19T21:27:05;9.07;;;6.50;;
4525;SDS011;2275;52.208;8.804;2022-08-19T21:29:32;8.47;;;6.33;;
4525;SDS011;2275;52.208;8.804;2022-08-19T21:32:03;11.90;;;7.13;;
4525;SDS011;2275;52.208;8.804;2022-08-19T21:34:30;9.83;;;6.80;;
4525;SDS011;2275;52.208;8.804;2022-08-19T21:36:58;8.80;;;7.50;;
4525;SDS011;2275;52.208;8.804;2022-08-19T21:39:25;10.73;;;6.83;;
4525;SDS011;2275;52.208;8.804;2022-08-19T21:41:52;9.37;;;6.40;;
4525;SDS011;2275;52.208;8.804;2022-08-19T21:44:20;12.00;;;7.60;;
4525;SDS011;2275;52.208;8.804;2022-08-19T21:46:47;10.80;;;6.83;;
4525;SDS011;2275;52.208;8.804;2022-08-19T21:49:15;9.70;;;7.40;;
4525;SDS011;2275;52.208;8.804;2022-08-19T21:51:42;9.33;;;7.00;;
4525;SDS011;2275;52.208;8.804;2022-08-19T21:54:10;8.77;;;6.77;;
4525;SDS011;2275;52.208;8.804;2022-08-19T21:56:37;10.07;;;7.33;;
4525;SDS011;2275;52.208;8.804;2022-08-19T21:59:04;10.07;;;7.30;;
4525;SDS011;2275;52.208;8.804;2022-08-19T22:01:32;9.43;;;7.97;;
4525;SDS011;2275;52.208;8.804;2022-08-19T22:03:59;10.07;;;7.83;;
4525;SDS011;2275;52.208;8.804;2022-08-19T22:06:26;11.50;;;7.83;;
4525;SDS011;2275;52.208;8.804;2022-08-19T22:08:53;9.37;;;7.90;;
4525;SDS011;2275;52.208;8.804;2022-08-19T22:11:21;10.10;;;7.90;;
4525;SDS011;2275;52.208;8.804;2022-08-19T22:13:52;11.63;;;9.50;;
4525;SDS011;2275;52.208;8.804;2022-08-19T22:16:28;13.30;;;8.93;;
4525;SDS011;2275;52.208;8.804;2022-08-19T22:18:55;14.10;;;8.93;;
4525;SDS011;2275;52.208;8.804;2022-08-19T22:21:22;16.90;;;9.67;;
4525;SDS011;2275;52.208;8.804;2022-08-19T22:23:50;12.17;;;9.60;;
4525;SDS011;2275;52.208;8.804;2022-08-19T22:26:17;15.90;;;9.30;;
4525;SDS011;2275;52.208;8.804;2022-08-19T22:28:44;14.87;;;9.53;;
4525;SDS011;2275;52.208;8.804;2022-08-19T22:31:12;14.03;;;9.87;;
4525;SDS011;2275;52.208;8.804;2022-08-19T22:33:39;13.30;;;10.40;;
4525;SDS011;2275;52.208;8.804;2022-08-19T22:36:06;13.83;;;11.13;;
4525;SDS011;2275;52.208;8.804;2022-08-19T22:38:34;15.20;;;10.23;;
4525;SDS011;2275;52.208;8.804;2022-08-19T22:41:01;18.77;;;11.37;;
4525;SDS011;2275;52.208;8.804;2022-08-19T22:43:28;14.17;;;11.17;;
4525;SDS011;2275;52.208;8.804;2022-08-19T22:45:56;13.83;;;10.67;;
4525;SDS011;2275;52.208;8.804;2022-08-19T22:48:26;19.40;;;10.33;;
4525;SDS011;2275;52.208;8.804;2022-08-19T22:50:52;15.63;;;11.60;;
4525;SDS011;2275;52.208;8.804;2022-08-19T22:53:25;14.60;;;11.57;;
4525;SDS011;2275;52.208;8.804;2022-08-19T22:55:52;14.43;;;11.00;;
4525;SDS011;2275;52.208;8.804;2022-08-19T22:58:19;15.97;;;11.50;;
4525;SDS011;2275;52.208;8.804;2022-08-19T23:00:46;15.90;;;11.77;;
4525;SDS011;2275;52.208;8.804;2022-08-19T23:03:13;17.30;;;12.40;;
4525;SDS011;2275;52.208;8.804;2022-08-19T23:05:41;17.23;;;12.90;;
4525;SDS011;2275;52.208;8.804;2022-08-19T23:08:08;18.10;;;12.43;;
4525;SDS011;2275;52.208;8.804;2022-08-19T23:10:35;18.00;;;12.33;;
4525;SDS011;2275;52.208;8.804;2022-08-19T23:13:02;15.77;;;12.50;;
4525;SDS011;2275;52.208;8.804;2022-08-19T23:15:30;19.83;;;12.90;;
4525;SDS011;2275;52.208;8.804;2022-08-19T23:17:58;19.33;;;13.33;;
4525;SDS011;2275;52.208;8.804;2022-08-19T23:20:26;16.67;;;12.70;;
4525;SDS011;2275;52.208;8.804;2022-08-19T23:22:52;15.30;;;12.80;;
4525;SDS011;2275;52.208;8.804;2022-08-19T23:25:21;23.70;;;13.40;;
4525;SDS011;2275;52.208;8.804;2022-08-19T23:27:47;18.23;;;14.27;;
4525;SDS011;2275;52.208;8.804;2022-08-19T23:30:20;21.70;;;14.53;;
4525;SDS011;2275;52.208;8.804;2022-08-19T23:32:54;19.17;;;13.30;;
4525;SDS011;2275;52.208;8.804;2022-08-19T23:35:20;17.77;;;13.10;;
4525;SDS011;2275;52.208;8.804;2022-08-19T23:37:48;18.83;;;14.13;;
4525;SDS011;2275;52.208;8.804;2022-08-19T23:40:16;17.97;;;12.60;;
4525;SDS011;2275;52.208;8.804;2022-08-19T23:42:43;20.97;;;13.53;;
4525;SDS011;2275;52.208;8.804;2022-08-19T23:45:10;17.30;;;12.97;;
4525;SDS011;2275;52.208;8.804;2022-08-19T23:47:38;18.77;;;13.07;;
4525;SDS011;2275;52.208;8.804;2022-08-19T23:50:05;18.77;;;13.17;;
4525;SDS011;2275;52.208;8.804;2022-08-19T23:52:41;18.80;;;13.90;;
4525;SDS011;2275;52.208;8.804;2022-08-19T23:55:03;21.57;;;13.47;;
4525;SDS011;2275;52.208;8.804;2022-08-19T23:57:31;18.37;;;13.50;;
4525;SDS011;2275;52.208;8.804;2022-08-19T23:59:58;18.53;;;13.17;;
